createdAt,value
2018-10-15T00:01:00.248Z,12.80
2018-10-15T00:03:28.635Z,13.10
2018-10-15T00:05:57.033Z,13.50
2018-10-15T00:08:25.372Z,13.13
2018-10-15T00:10:53.809Z,13.47
2018-10-15T00:13:22.157Z,12.30
2018-10-15T00:15:50.521Z,12.60
2018-10-15T00:18:18.920Z,12.53
2018-10-15T00:20:47.280Z,11.93
2018-10-15T00:23:15.638Z,14.00
2018-10-15T00:25:43.971Z,12.17
2018-10-15T00:28:12.366Z,12.70
2018-10-15T00:30:40.762Z,12.43
2018-10-15T00:33:09.084Z,13.13
2018-10-15T00:35:37.416Z,12.37
2018-10-15T00:38:05.754Z,13.00
2018-10-15T00:40:34.085Z,12.73
2018-10-15T00:43:02.796Z,14.97
2018-10-15T00:45:31.229Z,14.50
2018-10-15T00:47:59.609Z,14.70
2018-10-15T00:50:28.066Z,13.90
2018-10-15T00:52:56.398Z,13.23
2018-10-15T00:55:24.737Z,14.10
2018-10-15T00:57:53.119Z,12.67
2018-10-15T01:00:21.464Z,13.00
2018-10-15T01:02:49.837Z,13.80
2018-10-15T01:05:18.227Z,12.43
2018-10-15T01:07:46.578Z,13.00
2018-10-15T01:10:15.019Z,13.87
2018-10-15T01:12:43.477Z,12.80
2018-10-15T01:15:13.078Z,13.83
2018-10-15T01:17:41.396Z,13.57
2018-10-15T01:20:11.248Z,13.47
2018-10-15T01:22:39.704Z,13.10
2018-10-15T01:25:08.725Z,13.17
2018-10-15T01:27:37.044Z,14.80
2018-10-15T01:30:05.868Z,13.60
2018-10-15T01:32:34.220Z,14.50
2018-10-15T01:35:02.564Z,14.03
2018-10-15T01:37:30.940Z,13.33
2018-10-15T01:39:59.292Z,14.00
2018-10-15T01:42:27.623Z,14.30
2018-10-15T01:44:56.023Z,14.63
2018-10-15T01:47:24.322Z,13.33
2018-10-15T01:49:52.687Z,13.53
2018-10-15T01:52:20.970Z,13.90
2018-10-15T01:54:49.347Z,14.93
2018-10-15T01:57:17.701Z,13.23
2018-10-15T01:59:46.042Z,12.10
2018-10-15T02:02:14.445Z,14.30
2018-10-15T02:04:42.837Z,13.87
2018-10-15T02:07:11.182Z,13.93
2018-10-15T02:09:39.540Z,13.73
2018-10-15T02:12:07.989Z,15.03
2018-10-15T02:14:36.344Z,13.40
2018-10-15T02:17:04.791Z,12.80
2018-10-15T02:19:33.126Z,13.33
2018-10-15T02:22:01.435Z,12.90
2018-10-15T02:24:29.739Z,11.67
2018-10-15T02:26:58.077Z,12.80
2018-10-15T02:29:26.482Z,12.40
2018-10-15T02:31:54.846Z,12.60
2018-10-15T02:34:23.171Z,11.67
2018-10-15T02:36:51.491Z,13.00
2018-10-15T02:39:19.860Z,12.60
2018-10-15T02:41:48.266Z,12.90
2018-10-15T02:44:16.761Z,12.70
2018-10-15T02:46:45.125Z,13.63
2018-10-15T02:49:13.607Z,12.63
2018-10-15T02:51:42.009Z,13.60
2018-10-15T02:54:10.389Z,11.43
2018-10-15T02:56:38.750Z,13.40
2018-10-15T02:59:07.136Z,12.70
2018-10-15T03:01:35.523Z,14.40
2018-10-15T03:04:03.896Z,13.83
2018-10-15T03:06:32.266Z,12.07
2018-10-15T03:09:00.662Z,12.50
2018-10-15T03:11:29.000Z,15.37
2018-10-15T03:13:57.431Z,12.27
2018-10-15T03:16:25.767Z,12.23
2018-10-15T03:18:54.146Z,13.30
2018-10-15T03:21:22.511Z,11.73
2018-10-15T03:23:50.842Z,13.10
2018-10-15T03:26:19.177Z,12.30
2018-10-15T03:28:47.520Z,13.27
2018-10-15T03:31:15.854Z,13.03
2018-10-15T03:33:44.405Z,12.97
2018-10-15T03:36:12.753Z,12.40
2018-10-15T03:38:41.083Z,12.00
2018-10-15T03:41:09.452Z,12.20
2018-10-15T03:43:37.964Z,13.70
2018-10-15T03:46:06.302Z,13.57
2018-10-15T03:48:34.640Z,12.83
2018-10-15T03:51:02.956Z,13.43
2018-10-15T03:53:31.313Z,13.80
2018-10-15T03:55:59.712Z,12.83
2018-10-15T03:58:28.054Z,13.27
2018-10-15T04:00:56.436Z,13.23
2018-10-15T04:03:24.756Z,13.70
2018-10-15T04:05:53.096Z,12.17
2018-10-15T04:08:21.427Z,13.00
2018-10-15T04:10:49.761Z,12.70
2018-10-15T04:13:18.065Z,12.77
2018-10-15T04:15:46.410Z,13.00
2018-10-15T04:18:14.730Z,12.43
2018-10-15T04:20:43.058Z,13.27
2018-10-15T04:23:11.391Z,12.37
2018-10-15T04:25:39.752Z,13.50
2018-10-15T04:28:08.068Z,12.87
2018-10-15T04:30:36.441Z,12.43
2018-10-15T04:33:05.189Z,13.07
2018-10-15T04:35:33.514Z,13.27
2018-10-15T04:38:01.900Z,13.00
2018-10-15T04:40:30.142Z,13.67
2018-10-15T04:42:58.488Z,13.50
2018-10-15T04:45:26.854Z,13.60
2018-10-15T04:47:55.176Z,13.00
2018-10-15T04:50:23.560Z,13.13
2018-10-15T04:52:51.902Z,12.73
2018-10-15T04:55:20.318Z,13.80
2018-10-15T04:57:48.628Z,13.27
2018-10-15T05:00:17.238Z,13.90
2018-10-15T05:02:45.577Z,13.63
2018-10-15T05:05:14.185Z,14.70
2018-10-15T05:07:42.999Z,14.30
2018-10-15T05:10:11.494Z,13.67
2018-10-15T05:12:40.046Z,14.60
2018-10-15T05:15:09.677Z,14.00
2018-10-15T05:17:38.109Z,14.33
2018-10-15T05:20:07.842Z,14.17
2018-10-15T05:22:36.168Z,15.07
2018-10-15T05:25:04.689Z,13.97
2018-10-15T05:27:33.110Z,13.70
2018-10-15T05:30:01.475Z,13.67
2018-10-15T05:32:29.835Z,14.60
2018-10-15T05:34:58.210Z,15.50
2018-10-15T05:37:26.577Z,15.00
2018-10-15T05:39:54.910Z,14.20
2018-10-15T05:42:23.263Z,13.90
2018-10-15T05:44:51.618Z,14.43
2018-10-15T05:47:19.979Z,14.30
2018-10-15T05:49:48.435Z,14.77
2018-10-15T05:52:16.855Z,13.67
2018-10-15T05:54:45.230Z,14.93
2018-10-15T05:57:13.581Z,12.80
2018-10-15T05:59:41.980Z,14.60
2018-10-15T06:02:10.332Z,13.43
2018-10-15T06:04:38.693Z,12.97
2018-10-15T06:07:07.035Z,13.50
2018-10-15T06:09:35.359Z,13.57
2018-10-15T06:12:03.686Z,12.77
2018-10-15T06:14:32.058Z,13.43
2018-10-15T06:17:00.415Z,13.80
2018-10-15T06:19:28.737Z,12.57
2018-10-15T06:21:57.149Z,13.07
2018-10-15T06:24:25.561Z,13.60
2018-10-15T06:26:53.896Z,14.60
2018-10-15T06:29:22.215Z,12.30
2018-10-15T06:31:50.547Z,13.17
2018-10-15T06:34:18.850Z,13.33
2018-10-15T06:36:47.166Z,13.33
2018-10-15T06:39:15.573Z,13.70
2018-10-15T06:41:43.896Z,13.20
2018-10-15T06:44:12.218Z,12.20
2018-10-15T06:46:40.574Z,12.57
2018-10-15T06:49:08.948Z,13.83
2018-10-15T06:51:37.310Z,13.87
2018-10-15T06:54:05.808Z,14.47
2018-10-15T06:56:34.137Z,13.70
2018-10-15T06:59:02.557Z,13.47
2018-10-15T07:01:30.973Z,14.50
2018-10-15T07:03:59.330Z,14.10
2018-10-15T07:06:27.727Z,13.47
2018-10-15T07:08:56.109Z,12.93
2018-10-15T07:11:24.540Z,14.77
2018-10-15T07:13:52.905Z,12.73
2018-10-15T07:16:21.438Z,12.50
2018-10-15T07:18:49.708Z,12.70
2018-10-15T07:21:18.086Z,12.33
2018-10-15T07:23:46.422Z,11.90
2018-10-15T07:26:14.925Z,11.73
2018-10-15T07:28:43.219Z,11.17
2018-10-15T07:31:11.618Z,10.70
2018-10-15T07:33:40.061Z,10.90
2018-10-15T07:36:08.434Z,12.67
2018-10-15T07:38:36.876Z,11.77
2018-10-15T07:41:05.358Z,10.80
2018-10-15T07:43:33.712Z,11.60
2018-10-15T07:46:02.148Z,11.00
2018-10-15T07:48:30.532Z,11.77
2018-10-15T07:50:58.884Z,11.97
2018-10-15T07:53:27.254Z,12.00
2018-10-15T07:55:55.596Z,11.90
2018-10-15T07:58:24.015Z,12.17
2018-10-15T08:00:52.275Z,12.03
2018-10-15T08:03:20.632Z,11.90
2018-10-15T08:05:49.006Z,12.90
2018-10-15T08:08:17.408Z,12.80
2018-10-15T08:10:45.685Z,11.20
2018-10-15T08:13:14.062Z,13.13
2018-10-15T08:15:42.579Z,12.30
2018-10-15T08:18:10.745Z,12.90
2018-10-15T08:20:39.242Z,13.43
2018-10-15T08:23:07.581Z,12.33
2018-10-15T08:25:35.952Z,11.70
2018-10-15T08:28:04.419Z,12.47
2018-10-15T08:30:32.705Z,12.33
2018-10-15T08:33:01.110Z,11.77
2018-10-15T08:35:29.534Z,11.97
2018-10-15T08:37:57.850Z,12.17
2018-10-15T08:40:26.203Z,12.33
2018-10-15T08:42:54.575Z,12.60
2018-10-15T08:45:24.053Z,12.27
2018-10-15T08:47:52.802Z,12.87
2018-10-15T08:50:21.457Z,12.43
2018-10-15T08:52:50.939Z,12.07
2018-10-15T08:55:19.472Z,12.27
2018-10-15T08:57:47.900Z,12.40
2018-10-15T09:00:18.599Z,12.30
2018-10-15T09:02:47.260Z,12.80
2018-10-15T09:05:16.179Z,12.37
2018-10-15T09:07:45.096Z,12.47
2018-10-15T09:10:14.434Z,12.83
2018-10-15T09:12:42.918Z,12.40
2018-10-15T09:15:14.715Z,12.07
2018-10-15T09:17:43.214Z,12.63
2018-10-15T09:20:11.593Z,12.80
2018-10-15T09:22:41.174Z,11.30
2018-10-15T09:25:11.218Z,11.27
2018-10-15T09:27:39.599Z,11.10
2018-10-15T09:30:09.786Z,10.90
2018-10-15T09:32:38.399Z,10.57
2018-10-15T09:35:07.731Z,11.60
2018-10-15T09:37:36.081Z,10.07
2018-10-15T09:40:04.668Z,10.00
2018-10-15T09:42:33.026Z,9.43
2018-10-15T09:45:01.539Z,10.00
2018-10-15T09:47:29.879Z,9.47
2018-10-15T09:49:58.282Z,9.47
2018-10-15T09:52:26.761Z,9.17
2018-10-15T09:54:55.196Z,10.60
2018-10-15T09:57:24.339Z,9.23
2018-10-15T09:59:52.683Z,9.43
2018-10-15T10:02:21.085Z,10.30
2018-10-15T10:04:49.492Z,9.27
2018-10-15T10:07:17.887Z,9.70
2018-10-15T10:09:46.257Z,9.30
2018-10-15T10:12:14.653Z,8.73
2018-10-15T10:14:43.016Z,7.97
2018-10-15T10:17:11.421Z,8.83
2018-10-15T10:19:39.792Z,8.63
2018-10-15T10:22:08.198Z,8.03
2018-10-15T10:24:36.623Z,7.77
2018-10-15T10:27:05.094Z,8.40
2018-10-15T10:29:33.580Z,8.70
2018-10-15T10:32:02.024Z,8.30
2018-10-15T10:36:12.210Z,8.20
2018-10-15T10:38:45.966Z,6.97
2018-10-15T10:41:14.223Z,7.37
2018-10-15T10:43:42.671Z,6.83
2018-10-15T10:46:11.248Z,7.33
2018-10-15T10:48:39.597Z,6.60
2018-10-15T10:51:08.051Z,6.80
2018-10-15T10:53:36.439Z,6.63
2018-10-15T10:56:05.137Z,6.70
2018-10-15T10:58:33.488Z,6.77
2018-10-15T11:01:01.865Z,6.63
2018-10-15T11:03:30.254Z,7.00
2018-10-15T11:05:58.647Z,7.20
2018-10-15T11:08:27.018Z,7.33
2018-10-15T11:10:55.384Z,7.00
2018-10-15T11:13:23.777Z,6.47
2018-10-15T11:15:52.160Z,6.43
2018-10-15T11:18:20.646Z,6.40
2018-10-15T11:20:48.978Z,8.03
2018-10-15T11:23:17.379Z,6.60
2018-10-15T11:25:45.775Z,6.23
2018-10-15T11:28:14.187Z,6.77
2018-10-15T11:30:42.569Z,7.03
2018-10-15T11:33:11.020Z,6.53
2018-10-15T11:35:39.428Z,7.40
2018-10-15T11:38:07.802Z,6.70
2018-10-15T11:40:36.219Z,6.70
2018-10-15T11:43:04.780Z,6.43
2018-10-15T11:45:33.245Z,7.33
2018-10-15T11:48:01.628Z,6.60
2018-10-15T11:50:30.021Z,6.70
2018-10-15T11:52:58.423Z,6.57
2018-10-15T11:55:26.797Z,7.00
2018-10-15T11:57:55.184Z,7.43
2018-10-15T12:00:23.509Z,6.93
2018-10-15T12:02:51.816Z,7.40
2018-10-15T12:05:20.186Z,6.90
2018-10-15T12:07:48.569Z,6.60
2018-10-15T12:10:16.938Z,6.73
2018-10-15T12:12:45.322Z,6.80
2018-10-15T12:15:14.777Z,6.50
2018-10-15T12:17:43.445Z,6.50
2018-10-15T12:20:13.043Z,6.20
2018-10-15T12:22:41.488Z,6.60
2018-10-15T12:25:14.639Z,6.00
2018-10-15T12:27:43.114Z,7.07
2018-10-15T12:30:12.573Z,6.33
2018-10-15T12:32:41.269Z,7.13
2018-10-15T12:35:11.227Z,6.00
2018-10-15T12:37:40.005Z,6.40
2018-10-15T12:40:08.975Z,6.30
2018-10-15T12:42:37.323Z,7.07
2018-10-15T12:45:06.855Z,6.10
2018-10-15T12:47:35.226Z,6.80
2018-10-15T12:50:03.926Z,6.47
2018-10-15T12:52:32.273Z,5.17
2018-10-15T12:55:00.613Z,6.20
2018-10-15T12:57:28.997Z,6.33
2018-10-15T12:59:57.442Z,6.03
2018-10-15T13:02:25.879Z,5.70
2018-10-15T13:05:22.589Z,6.00
2018-10-15T13:07:51.048Z,5.80
2018-10-15T13:10:19.432Z,5.60
2018-10-15T13:12:49.024Z,6.17
2018-10-15T13:15:18.223Z,6.17
2018-10-15T13:17:46.623Z,6.17
2018-10-15T13:20:15.109Z,5.60
2018-10-15T13:22:44.847Z,6.43
2018-10-15T13:25:13.312Z,5.80
2018-10-15T13:27:41.991Z,5.67
2018-10-15T13:30:11.097Z,5.43
2018-10-15T13:32:39.688Z,6.07
2018-10-15T13:35:10.391Z,5.30
2018-10-15T13:37:38.774Z,6.10
2018-10-15T13:40:07.217Z,5.77
2018-10-15T13:42:35.841Z,5.37
2018-10-15T13:45:04.696Z,6.20
2018-10-15T13:47:33.011Z,5.40
2018-10-15T13:50:01.531Z,5.40
2018-10-15T13:52:29.972Z,6.70
2018-10-15T13:54:58.435Z,7.40
2018-10-15T13:57:26.853Z,7.20
2018-10-15T13:59:55.232Z,6.87
2018-10-15T14:02:23.654Z,6.30
2018-10-15T14:04:52.082Z,6.17
2018-10-15T14:07:20.465Z,6.03
2018-10-15T14:09:48.819Z,5.20
2018-10-15T14:12:17.222Z,6.20
2018-10-15T14:14:45.582Z,5.23
2018-10-15T14:17:13.960Z,5.13
2018-10-15T14:19:42.431Z,5.53
2018-10-15T14:22:10.844Z,5.63
2018-10-15T14:24:39.251Z,5.73
2018-10-15T14:27:07.462Z,5.70
2018-10-15T14:29:35.801Z,5.23
2018-10-15T14:32:04.756Z,5.37
2018-10-15T14:34:33.159Z,5.60
2018-10-15T14:37:01.503Z,5.47
2018-10-15T14:39:29.917Z,5.67
2018-10-15T14:41:58.297Z,6.23
2018-10-15T14:44:26.911Z,5.20
2018-10-15T14:46:55.330Z,5.30
2018-10-15T14:49:23.710Z,4.90
2018-10-15T14:51:52.208Z,5.60
2018-10-15T14:54:20.598Z,5.30
2018-10-15T14:56:49.031Z,5.47
2018-10-15T14:59:17.522Z,5.00
2018-10-15T15:01:45.839Z,5.50
2018-10-15T15:04:14.222Z,5.30
2018-10-15T15:06:42.595Z,5.10
2018-10-15T15:09:20.949Z,5.30
2018-10-15T15:12:00.617Z,5.33
2018-10-15T15:14:29.018Z,5.30
2018-10-15T15:16:57.465Z,5.63
2018-10-15T15:19:25.838Z,6.47
2018-10-15T15:21:54.255Z,8.20
2018-10-15T15:24:22.579Z,21.90
2018-10-15T15:26:50.942Z,6.73
2018-10-15T15:29:19.342Z,5.77
2018-10-15T15:31:47.709Z,5.80
2018-10-15T15:34:16.255Z,5.40
2018-10-15T15:36:44.615Z,5.00
2018-10-15T15:39:13.005Z,5.50
2018-10-15T15:41:41.501Z,5.90
2018-10-15T15:44:09.794Z,5.40
2018-10-15T15:46:38.167Z,5.40
2018-10-15T15:49:06.614Z,6.50
2018-10-15T15:51:34.994Z,5.63
2018-10-15T15:54:03.393Z,5.47
2018-10-15T15:56:31.756Z,5.60
2018-10-15T15:59:00.144Z,9.47
2018-10-15T16:01:28.587Z,7.10
2018-10-15T16:03:56.948Z,6.60
2018-10-15T16:06:25.405Z,6.43
2018-10-15T16:08:53.817Z,7.40
2018-10-15T16:11:22.329Z,7.87
2018-10-15T16:13:50.710Z,7.70
2018-10-15T16:16:19.103Z,16.03
2018-10-15T16:18:47.470Z,7.20
2018-10-15T16:21:15.871Z,10.37
2018-10-15T16:23:44.228Z,19.70
2018-10-15T16:26:12.612Z,10.10
2018-10-15T16:28:41.005Z,8.30
2018-10-15T16:31:09.417Z,7.47
2018-10-15T16:33:37.831Z,11.30
2018-10-15T16:36:06.321Z,12.40
2018-10-15T16:38:34.704Z,9.07
2018-10-15T16:41:03.090Z,8.13
2018-10-15T16:43:31.553Z,7.60
2018-10-15T16:46:00.045Z,7.67
2018-10-15T16:48:29.231Z,8.00
2018-10-15T16:50:57.724Z,8.10
2018-10-15T16:53:26.176Z,8.50
2018-10-15T16:55:54.598Z,8.33
2018-10-15T16:58:23.000Z,9.20
2018-10-15T17:00:51.566Z,8.53
2018-10-15T17:03:19.948Z,8.33
2018-10-15T17:05:48.390Z,8.73
2018-10-15T17:08:16.801Z,8.50
2018-10-15T17:10:45.235Z,7.43
2018-10-15T17:13:13.685Z,8.03
2018-10-15T17:15:42.052Z,8.00
2018-10-15T17:18:10.530Z,9.70
2018-10-15T17:20:38.904Z,8.53
2018-10-15T17:23:07.365Z,9.27
2018-10-15T17:25:35.751Z,10.33
2018-10-15T17:28:04.314Z,10.87
2018-10-15T17:30:32.649Z,8.17
2018-10-15T17:33:01.025Z,8.73
2018-10-15T17:35:29.497Z,8.90
2018-10-15T17:37:57.986Z,9.57
2018-10-15T17:40:26.655Z,9.30
2018-10-15T17:42:55.124Z,8.60
2018-10-15T17:45:23.557Z,9.00
2018-10-15T17:47:51.947Z,9.83
2018-10-15T17:50:20.368Z,8.90
2018-10-15T17:52:48.893Z,9.70
2018-10-15T17:55:17.276Z,9.60
2018-10-15T17:57:45.648Z,8.90
2018-10-15T18:00:21.174Z,9.47
2018-10-15T18:02:49.641Z,8.37
2018-10-15T18:05:17.995Z,8.87
2018-10-15T18:07:46.356Z,8.20
2018-10-15T18:10:14.907Z,8.57
2018-10-15T18:12:43.442Z,8.93
2018-10-15T18:15:11.896Z,9.23
2018-10-15T18:17:40.416Z,8.60
2018-10-15T18:20:08.895Z,9.37
2018-10-15T18:22:37.858Z,9.30
2018-10-15T18:25:06.861Z,9.03
2018-10-15T18:27:35.266Z,8.50
2018-10-15T18:30:03.712Z,9.10
2018-10-15T18:32:32.139Z,9.20
2018-10-15T18:35:00.646Z,8.67
2018-10-15T18:37:29.218Z,8.93
2018-10-15T18:39:57.611Z,9.20
2018-10-15T18:42:26.006Z,9.30
2018-10-15T18:44:54.463Z,8.00
2018-10-15T18:47:22.926Z,8.33
2018-10-15T18:49:51.316Z,9.50
2018-10-15T18:52:19.737Z,9.20
2018-10-15T18:54:48.094Z,9.80
2018-10-15T18:57:16.605Z,10.20
2018-10-15T18:59:45.002Z,10.20
2018-10-15T19:02:13.498Z,10.23
2018-10-15T19:04:41.972Z,10.50
2018-10-15T19:07:10.542Z,10.60
2018-10-15T19:09:39.021Z,9.63
2018-10-15T19:12:07.652Z,10.87
2018-10-15T19:14:36.045Z,9.80
2018-10-15T19:17:04.525Z,10.47
2018-10-15T19:19:32.894Z,10.53
2018-10-15T19:22:01.343Z,10.30
2018-10-15T19:24:29.829Z,10.30
2018-10-15T19:26:58.201Z,9.80
2018-10-15T19:29:27.054Z,11.67
2018-10-15T19:31:55.434Z,11.90
2018-10-15T19:34:23.823Z,11.80
2018-10-15T19:36:52.235Z,11.17
2018-10-15T19:39:20.590Z,12.27
2018-10-15T19:41:49.053Z,11.37
2018-10-15T19:44:18.470Z,12.00
2018-10-15T19:46:46.926Z,11.70
2018-10-15T19:49:15.765Z,11.03
2018-10-15T19:51:44.258Z,10.80
2018-10-15T19:54:12.678Z,11.30
2018-10-15T19:56:41.133Z,12.00
2018-10-15T19:59:09.481Z,11.13
2018-10-15T20:01:37.916Z,11.00
2018-10-15T20:04:06.350Z,10.90
2018-10-15T20:06:34.905Z,11.30
2018-10-15T20:09:04.265Z,11.17
2018-10-15T20:11:32.725Z,11.47
2018-10-15T20:14:01.149Z,11.37
2018-10-15T20:16:29.587Z,12.00
2018-10-15T20:18:58.007Z,12.40
2018-10-15T20:21:26.418Z,12.37
2018-10-15T20:23:54.870Z,12.13
2018-10-15T20:26:23.246Z,11.60
2018-10-15T20:28:51.641Z,12.70
2018-10-15T20:31:20.207Z,12.23
2018-10-15T20:33:48.643Z,11.47
2018-10-15T20:36:17.093Z,11.30
2018-10-15T20:38:45.741Z,11.33
2018-10-15T20:41:14.314Z,11.30
2018-10-15T20:43:42.702Z,10.97
2018-10-15T20:46:11.091Z,11.03
2018-10-15T20:48:39.469Z,11.97
2018-10-15T20:51:07.867Z,11.17
2018-10-15T20:53:36.273Z,11.90
2018-10-15T20:56:05.021Z,12.27
2018-10-15T20:58:34.651Z,11.70
2018-10-15T21:01:03.044Z,11.57
2018-10-15T21:03:31.501Z,11.80
2018-10-15T21:05:59.903Z,11.67
2018-10-15T21:08:28.305Z,12.83
2018-10-15T21:10:56.694Z,12.77
2018-10-15T21:13:25.059Z,12.67
2018-10-15T21:15:53.970Z,11.33
2018-10-15T21:18:22.397Z,12.10
2018-10-15T21:20:50.809Z,13.10
2018-10-15T21:23:19.358Z,12.67
2018-10-15T21:25:47.700Z,12.67
2018-10-15T21:28:16.221Z,11.33
2018-10-15T21:30:44.569Z,14.70
2018-10-15T21:33:12.983Z,13.10
2018-10-15T21:35:41.348Z,12.50
2018-10-15T21:38:09.743Z,11.77
2018-10-15T21:40:38.110Z,13.03
2018-10-15T21:43:06.539Z,11.70
2018-10-15T21:45:34.955Z,13.03
2018-10-15T21:48:03.468Z,13.20
2018-10-15T21:50:31.981Z,11.90
2018-10-15T21:53:00.380Z,11.97
2018-10-15T21:55:28.818Z,13.27
2018-10-15T21:57:57.217Z,13.80
2018-10-15T22:00:25.581Z,12.63
2018-10-15T22:02:54.009Z,12.20
2018-10-15T22:05:22.428Z,12.93
2018-10-15T22:07:50.781Z,13.20
2018-10-15T22:10:24.527Z,13.50
2018-10-15T22:12:52.862Z,13.30
2018-10-15T22:15:21.274Z,13.43
2018-10-15T22:17:49.682Z,12.73
2018-10-15T22:20:18.053Z,11.57
2018-10-15T22:22:46.398Z,12.73
2018-10-15T22:25:14.803Z,13.67
2018-10-15T22:27:43.260Z,13.17
2018-10-15T22:30:12.638Z,13.13
2018-10-15T22:32:41.037Z,14.90
2018-10-15T22:35:10.415Z,12.87
2018-10-15T22:37:39.112Z,13.40
2018-10-15T22:40:08.464Z,14.00
2018-10-15T22:42:36.809Z,12.33
2018-10-15T22:45:06.734Z,13.93
2018-10-15T22:47:35.121Z,13.50
2018-10-15T22:50:03.478Z,12.97
2018-10-15T22:52:31.880Z,14.70
2018-10-15T22:55:00.297Z,14.47
2018-10-15T22:57:28.618Z,13.43
2018-10-15T22:59:56.994Z,14.63
2018-10-15T23:02:25.345Z,13.90
2018-10-15T23:04:53.696Z,14.30
2018-10-15T23:07:22.003Z,14.10
2018-10-15T23:09:50.344Z,12.73
2018-10-15T23:12:18.708Z,14.10
2018-10-15T23:14:47.033Z,14.77
2018-10-15T23:17:15.365Z,12.93
2018-10-15T23:19:43.752Z,14.13
2018-10-15T23:22:12.148Z,14.20
2018-10-15T23:24:40.521Z,14.03
2018-10-15T23:27:08.846Z,15.50
2018-10-15T23:29:37.216Z,13.33
2018-10-15T23:32:05.694Z,13.57
2018-10-15T23:34:34.072Z,12.73
2018-10-15T23:37:02.412Z,13.43
2018-10-15T23:39:30.727Z,12.30
2018-10-15T23:41:59.029Z,12.27
2018-10-15T23:44:27.653Z,13.77
2018-10-15T23:46:56.007Z,13.13
2018-10-15T23:49:24.409Z,12.97
2018-10-15T23:51:52.723Z,13.43
2018-10-15T23:54:21.050Z,15.90
2018-10-15T23:56:49.469Z,13.53
2018-10-15T23:59:17.844Z,13.87
